Cochrane — D5HE9 — position and weather

sailwx.info

Track history (hours):
 
Tides and Currents Weather Stations Pressure Air Temp Water Temp Dewpoint Dewpoint Depression Visibility Wind Speed Wind Dir Waves Ship Positions

Cochrane

Last reported at 2018-Jul-18 19:36 UTC. Time now 2018-Jul-20 16:07 UTC.
Position N 23°20' E 117°39'.

Length 300 m; draft 9 m.

Type: Cargo ship. MMSI: 636016664.

Date/timePositionNaut miles runAvg speedWind from/ knotsBaromVisibWave heightAir tempDewpointWater temp
2018-Jul-18 19:36N 23°20' E 117°39'110.9
2018-Jul-18 19:30N 23°21' E 117°39'510.6
2018-Jul-18 19:00N 23°25' E 117°43'510.7
2018-Jul-18 18:30N 23°29' E 117°47'510.8
2018-Jul-18 18:00N 23°33' E 117°51'510.2
2018-Jul-18 17:30N 23°36' E 117°55'5 9.8
2018-Jul-18 17:00N 23°39' E 117°59'610.3
2018-Jul-18 16:28N 23°43' E 118°04'510.9
2018-Jul-18 15:58N 23°47' E 118°08'1211.0
2018-Jul-18 14:53N 23°55' E 118°18'1411.4
2018-Jul-18 13:37N 24°04' E 118°30'211.6
2018-Jul-18 13:28N 24°05' E 118°32'611.7
2018-Jul-18 12:59N 24°09' E 118°37'911.9
2018-Jul-18 12:16N 24°14' E 118°43'311.9
2018-Jul-18 11:59N 24°17' E 118°46'612.2
2018-Jul-18 11:30N 24°20' E 118°51'  
Track history (hours):
 
Tides and Currents Weather Stations Pressure Air Temp Water Temp Dewpoint Dewpoint Depression Visibility Wind Speed Wind Dir Waves Ship Positions

Cochrane

Last reported at 2018-Jul-18 19:36 UTC. Time now 2018-Jul-20 16:07 UTC.
Position N 23°20' E 117°39'.

Length 300 m; draft 9 m.

Type: Cargo ship. MMSI: 636016664.

Date/timePositionNaut miles runAvg speedWind from/ knotsBaromVisibWave heightAir tempDewpointWater temp
2018-Jul-18 19:36N 23°20' E 117°39'110.9
2018-Jul-18 19:30N 23°21' E 117°39'510.6
2018-Jul-18 19:00N 23°25' E 117°43'510.7
2018-Jul-18 18:30N 23°29' E 117°47'510.8
2018-Jul-18 18:00N 23°33' E 117°51'510.2
2018-Jul-18 17:30N 23°36' E 117°55'5 9.8
2018-Jul-18 17:00N 23°39' E 117°59'610.3
2018-Jul-18 16:28N 23°43' E 118°04'510.9
2018-Jul-18 15:58N 23°47' E 118°08'1211.0
2018-Jul-18 14:53N 23°55' E 118°18'1411.4
2018-Jul-18 13:37N 24°04' E 118°30'211.6
2018-Jul-18 13:28N 24°05' E 118°32'611.7
2018-Jul-18 12:59N 24°09' E 118°37'911.9
2018-Jul-18 12:16N 24°14' E 118°43'311.9
2018-Jul-18 11:59N 24°17' E 118°46'612.2
2018-Jul-18 11:30N 24°20' E 118°51'  

Dump ship's entire track history